Flight Track Log - Related Links

Times and Time Zones

All times are in EDT time to prevent confusion due to time zone crossing. See the DAL1283 flight status page for this flight to view local times or setup timezone preferences in your user account.

Time Position Orientation Groundspeed Altitude Reporting Facility
EDT Latitude Longitude Course Direction KTS MPH feet Rate Location/Type
Sat 07:12:08 AM 42.9500 -71.4167 200° South 173 199 1,400  Level KA90
Sat 07:13:56 AM 43.0181 -71.3325 42° Northeast 207 238 5,100 2,393 Climbing Boston Center
Sat 07:14:56 AM 43.0361 -71.2442 74° East 224 258 8,100 2,850 Climbing Boston Center
Sat 07:15:00 AM 43.0041 -70.8874 144° Southeast  Level FlightAware Approximate
Sat 07:15:56 AM 43.0161 -71.1394 105° East 248 285 10,800  Level Boston Center
Sat 07:16:00 AM 42.8956 -70.9155 202° Southwest  Level FlightAware Approximate
Sat 07:16:56 AM 42.9942 -71.0464 108° East 280 322 12,800  Level Boston Center
Sat 07:17:00 AM 42.7825 -70.9672 200° South  Level FlightAware Approximate
Sat 07:17:56 AM 42.9225 -70.9856 148° Southeast 286 329 15,200  Level Boston Center
Sat 07:18:56 AM 42.8269 -70.9992 186° South 313 360 16,000 1,000 Climbing Boston Center
Sat 07:19:56 AM 42.7147 -71.0386 194° South 394 453 17,200 1,200 Climbing Boston Center
Sat 07:20:56 AM 42.6008 -71.0833 196° South 427 491 18,400 2,200 Climbing Boston Center
Sat 07:21:56 AM 42.5097 -71.1361 203° Southwest 426 490 21,600 2,400 Climbing Boston Center
Sat 07:22:56 AM 42.4653 -71.2750 247° West 370 426 23,200 1,050 Climbing Boston Center
Sat 07:23:56 AM 42.4375 -71.4303 256° West 385 443 23,700 400 Climbing Boston Center
Sat 07:24:56 AM 42.3994 -71.5967 253° West 433 498 24,000 150 Climbing Boston Center
Sat 07:25:56 AM 42.3650 -71.7628 254° West 451 519 24,000  Level Boston Center
Sat 07:26:56 AM 42.3283 -71.9317 254° West 463 533 24,000  Level Boston Center
Sat 07:27:56 AM 42.2831 -72.0978 250° West 469 540 24,000  Level Boston Center
Sat 07:29:08 AM 42.2294 -72.2578 246° West 474 545 24,000  Level Boston Center
Sat 07:30:08 AM 42.1650 -72.4514 246° West 474 545 24,000  Level Boston Center
Sat 07:31:08 AM 42.1128 -72.6164 247° West 480 552 24,000  Level Boston Center
Sat 07:32:08 AM 42.0561 -72.7869 246° West 474 545 24,000  Level Boston Center
Sat 07:33:08 AM 41.9992 -72.9486 245° Southwest 474 545 24,000  Level Boston Center
Sat 07:34:08 AM 41.9336 -73.1097 241° Southwest 484 557 24,000  Level Boston Center
Sat 07:35:08 AM 41.8453 -73.2456 229° Southwest 489 563 24,000  Level Boston Center
Sat 07:36:08 AM 41.7567 -73.3781 228° Southwest 489 563 24,000  Level Boston Center
Sat 07:37:08 AM 41.6658 -73.5072 227° Southwest 489 563 24,000  Level Boston Center
Sat 07:38:08 AM 41.5750 -73.6389 227° Southwest 483 556 24,000 -57 Level Boston Center
Sat 07:38:53 AM 41.5139 -73.7300 228° Southwest 473 544 23,900  Descending New York Center
Sat 07:39:53 AM 41.4253 -73.8617 228° Southwest 458 527 24,000 49 Climbing New York Center
Sat 07:40:55 AM 41.3364 -73.9903 227° Southwest 464 534 24,000  Level New York Center
Sat 07:41:53 AM 41.2453 -74.1236 228° Southwest 477 549 24,000  Level New York Center
Sat 07:42:53 AM 41.1606 -74.2408 226° Southwest 487 560 24,000  Level New York Center
Sat 07:43:54 AM 41.0714 -74.3711 228° Southwest 487 560 24,000  Level New York Center
Sat 07:44:55 AM 40.9819 -74.5008 228° Southwest 487 560 24,000  Level New York Center
Sat 07:45:55 AM 40.8903 -74.6275 226° Southwest 482 555 24,000  Level New York Center
Sat 07:46:55 AM 40.8008 -74.7514 226° Southwest 482 555 24,000  Level New York Center
Sat 07:47:55 AM 40.7131 -74.8806 228° Southwest 477 549 24,000  Level New York Center
Sat 07:48:53 AM 40.6208 -75.0089 227° Southwest 482 555 24,000  Level New York Center
Sat 07:49:54 AM 40.5369 -75.1375 229° Southwest 477 549 24,000  Level New York Center
Sat 07:50:54 AM 40.4572 -75.2689 231° Southwest 471 542 24,000  Level New York Center
Sat 07:51:54 AM 40.3750 -75.3997 231° Southwest 471 542 24,000  Level New York Center
Sat 07:52:55 AM 40.2906 -75.5303 230° Southwest 471 542 24,000  Level New York Center
Sat 07:53:55 AM 40.2100 -75.6633 232° Southwest 471 542 24,000  Level New York Center
Sat 07:54:53 AM 40.1164 -75.8061 229° Southwest 471 542 24,000  Level New York Center
Sat 07:55:53 AM 40.0381 -75.9331 231° Southwest 471 542 24,000  Level New York Center
Sat 07:56:55 AM 39.9531 -76.0622 229° Southwest 471 542 24,000  Level New York Center
Sat 07:57:53 AM 39.8722 -76.1914 231° Southwest 471 542 24,000  Level New York Center
Sat 07:58:53 AM 39.7942 -76.3017 227° Southwest 471 542 24,000  Level New York Center
Sat 07:59:26 AM 39.7506 -76.3850 236° Southwest 472 543 24,000  Level Washington Center
Sat 08:00:25 AM 39.6747 -76.4972 229° Southwest 472 543 24,000  Level Washington Center
Sat 08:01:25 AM 39.5778 -76.6333 227° Southwest 472 543 24,000  Level Washington Center
Sat 08:02:26 AM 39.4975 -76.7586 230° Southwest 472 543 24,000  Level Washington Center
Sat 08:03:27 AM 39.4128 -76.8864 229° Southwest 472 543 24,000  Level Washington Center
Sat 08:04:25 AM 39.3322 -77.0111 230° Southwest 467 537 24,000  Level Washington Center
Sat 08:05:25 AM 39.2494 -77.1353 229° Southwest 467 537 24,000  Level Washington Center
Sat 08:06:25 AM 39.1686 -77.2594 230° Southwest 467 537 24,000  Level Washington Center
Sat 08:07:26 AM 39.0833 -77.3886 230° Southwest 467 537 24,000  Level Washington Center
Sat 08:08:26 AM 39.0025 -77.5067 229° Southwest 467 537 24,000  Level Washington Center
Sat 08:09:25 AM 38.9189 -77.6328 230° Southwest 467 537 24,000  Level Washington Center
Sat 08:10:25 AM 38.8336 -77.7556 228° Southwest 467 537 24,000  Level Washington Center
Sat 08:11:26 AM 38.7583 -77.8706 230° Southwest 467 537 24,000  Level Washington Center
Sat 08:12:26 AM 38.6769 -77.9903 229° Southwest 467 537 24,000  Level Washington Center
Sat 08:13:27 AM 38.5931 -78.1125 229° Southwest 467 537 24,000  Level Washington Center
Sat 08:14:26 AM 38.5111 -78.2317 229° Southwest 467 537 24,000  Level Washington Center
Sat 08:15:27 AM 38.4292 -78.3533 229° Southwest 467 537 24,000  Level Washington Center
Sat 08:16:25 AM 38.3450 -78.4747 229° Southwest 462 532 24,000  Level Washington Center
Sat 08:17:25 AM 38.2586 -78.6036 230° Southwest 455 524 24,000  Level Washington Center
Sat 08:18:25 AM 38.1764 -78.7192 228° Southwest 450 518 24,000  Level Washington Center
Sat 08:19:26 AM 38.0939 -78.8372 228° Southwest 450 518 24,000  Level Washington Center
Sat 08:20:27 AM 38.0181 -78.9444 228° Southwest 450 518 24,000  Level Washington Center
Sat 08:21:27 AM 37.9353 -79.0619 228° Southwest 455 524 24,000  Level Washington Center
Sat 08:22:25 AM 37.8528 -79.1792 228° Southwest 455 524 24,000  Level Washington Center
Sat 08:23:26 AM 37.7614 -79.3036 227° Southwest 450 518 24,000  Level Washington Center
Sat 08:24:27 AM 37.6742 -79.4172 226° Southwest 450 518 24,000  Level Washington Center
Sat 08:25:25 AM 37.6000 -79.5236 229° Southwest 456 525 24,000  Level Washington Center
Sat 08:26:25 AM 37.5081 -79.6497 227° Southwest 451 519 24,000  Level Washington Center
Sat 08:27:25 AM 37.4314 -79.7583 228° Southwest 458 527 24,000  Level Washington Center
Sat 08:29:13 AM 37.2692 -79.9731 227° Southwest 452 520 24,000  Level Atlanta Center
Sat 08:30:13 AM 37.1872 -80.0842 227° Southwest 447 514 24,000  Level Atlanta Center
Sat 08:31:13 AM 37.1014 -80.2003 227° Southwest 447 514 24,000  Level Atlanta Center
Sat 08:32:13 AM 37.0272 -80.3003 227° Southwest 447 514 24,000  Level Atlanta Center
Sat 08:33:13 AM 36.9431 -80.4133 227° Southwest 442 509 24,000  Level Atlanta Center
Sat 08:34:13 AM 36.8589 -80.5261 227° Southwest 442 509 24,000  Level Atlanta Center
Sat 08:35:13 AM 36.7744 -80.6386 227° Southwest 442 509 24,000  Level Atlanta Center
Sat 08:36:13 AM 36.6819 -80.7592 226° Southwest 442 509 24,000  Level Atlanta Center
Sat 08:37:13 AM 36.6014 -80.8711 228° Southwest 432 497 24,000  Level Atlanta Center
Sat 08:38:13 AM 36.5186 -80.9775 226° Southwest 432 497 24,000  Level Atlanta Center
Sat 08:39:13 AM 36.4358 -81.0892 227° Southwest 432 497 24,000  Level Atlanta Center
Sat 08:40:13 AM 36.3611 -81.1897 227° Southwest 437 503 24,000  Level Atlanta Center
Sat 08:41:13 AM 36.2758 -81.2986 226° Southwest 432 497 24,000  Level Atlanta Center
Sat 08:42:13 AM 36.1947 -81.4067 227° Southwest 432 497 24,000  Level Atlanta Center
Sat 08:43:13 AM 36.1094 -81.5150 226° Southwest 432 497 24,000  Level Atlanta Center
Sat 08:44:13 AM 36.0242 -81.6281 227° Southwest 437 503 24,000  Level Atlanta Center
Sat 08:45:13 AM 35.9428 -81.7356 227° Southwest 437 503 24,000  Level Atlanta Center
Sat 08:46:13 AM 35.8572 -81.8431 226° Southwest 432 497 24,000  Level Atlanta Center
Sat 08:47:13 AM 35.7736 -81.9503 226° Southwest 432 497 24,000  Level Atlanta Center
Sat 08:48:13 AM 35.6897 -82.0547 225° Southwest 432 497 24,000  Level Atlanta Center
Sat 08:49:13 AM 35.6058 -82.1589 225° Southwest 432 497 24,000  Level Atlanta Center
Sat 08:50:13 AM 35.5094 -82.2733 224° Southwest 437 503 24,000  Level Atlanta Center
Sat 08:51:13 AM 35.4211 -82.3744 223° Southwest 437 503 24,000  Level Atlanta Center
Sat 08:52:13 AM 35.3328 -82.4706 222° Southwest 437 503 24,000  Level Atlanta Center
Sat 08:53:13 AM 35.2422 -82.5714 222° Southwest 437 503 24,000  Level Atlanta Center
Sat 08:54:13 AM 35.1681 -82.6592 224° Southwest 432 497 24,000  Level Atlanta Center
Sat 08:55:13 AM 35.0772 -82.7544 221° Southwest 432 497 24,000  Level Atlanta Center
Sat 08:56:13 AM 34.9928 -82.8522 224° Southwest 432 497 24,000  Level Atlanta Center
Sat 08:57:13 AM 34.9039 -82.9447 220° Southwest 433 498 24,000  Level Atlanta Center
Sat 08:58:13 AM 34.8169 -83.0444 223° Southwest 433 498 24,000  Level Atlanta Center
Sat 08:59:13 AM 34.7300 -83.1417 223° Southwest 428 493 24,000  Level Atlanta Center
Sat 09:00:13 AM 34.6431 -83.2383 222° Southwest 434 499 24,000  Level Atlanta Center
Sat 09:01:13 AM 34.5519 -83.3353 221° Southwest 434 499 24,000 -300 Level Atlanta Center
Sat 09:02:13 AM 34.4606 -83.4392 223° Southwest 427 491 23,400 -1,200 Descending Atlanta Center
Sat 09:03:13 AM 34.3797 -83.5278 222° Southwest 404 465 21,600 -1,700 Descending Atlanta Center
Sat 09:04:13 AM 34.3236 -83.6289 236° Southwest 385 443 20,000 -1,700 Descending Atlanta Center
Sat 09:05:13 AM 34.2697 -83.7244 236° Southwest 362 417 18,200 -2,000 Descending Atlanta Center
Sat 09:06:13 AM 34.1883 -83.7750 207° Southwest 331 381 16,000 -1,900 Descending Atlanta Center
Sat 09:07:13 AM 34.1156 -83.8281 211° Southwest 331 381 14,400 -1,000 Descending Atlanta Center
Sat 09:08:13 AM 34.0447 -83.8908 216° Southwest 324 373 14,000 -981 Descending Atlanta Center
Sat 09:08:57 AM 34.0000 -83.9333 218° Southwest 314 361 12,700 -1,776 Descending Atlanta TRACON
Sat 09:09:51 AM 33.9333 -84.0000 220° Southwest 306 352 11,100 -850 Descending Atlanta TRACON
Sat 09:10:57 AM 33.8833 -84.0667 228° Southwest 273 314 11,000 -73 Descending Atlanta TRACON
Sat 09:11:13 AM 33.8653 -84.0839 218° Southwest 297 342 11,000  Level Atlanta Center
Sat 09:11:51 AM 33.8333 -84.1333 232° Southwest 279 321 11,000  Level Atlanta TRACON
Sat 09:12:51 AM 33.8000 -84.2167 244° Southwest 231 266 11,000  Level Atlanta TRACON
Sat 09:13:51 AM 33.7667 -84.2833 239° Southwest 232 267 11,000 -350 Level Atlanta TRACON
Sat 09:14:51 AM 33.7333 -84.3500 239° Southwest 232 267 10,300 -1,050 Descending Atlanta TRACON
Sat 09:15:51 AM 33.7333 -84.4167 270° West 247 284 8,900 -1,421 Descending Atlanta TRACON
Sat 09:16:45 AM 33.7333 -84.5000 270° West 241 277 7,600 -1,600 Descending Atlanta TRACON
Sat 09:17:51 AM 33.7333 -84.5833 270° West 249 287 5,700 -1,300 Descending Atlanta TRACON
Sat 09:18:45 AM 33.7333 -84.6667 270° West 262 302 5,000 -350 Descending Atlanta TRACON
Sat 09:19:51 AM 33.7333 -84.7667 270° West 260 299 5,000  Level Atlanta TRACON
Sat 09:20:51 AM 33.7333 -84.8333 270° West 240 276 5,000  Level Atlanta TRACON
Sat 09:21:51 AM 33.7167 -84.9167 257° West 226 260 5,000  Level Atlanta TRACON
Sat 09:22:51 AM 33.6667 -84.9167 180° South 169 194 5,000  Level Atlanta TRACON
Sat 09:23:51 AM 33.6500 -84.8833 121° Southeast 150 173 5,000  Level Atlanta TRACON
Sat 09:24:45 AM 33.6500 -84.8333 90° East 159 183 5,000  Level Atlanta TRACON
Sat 09:25:45 AM 33.6500 -84.7667 90° East 161 185 5,000  Level Atlanta TRACON
Sat 09:26:39 AM 33.6500 -84.7167 90° East 162 186 5,000 -53 Level Atlanta TRACON
Sat 09:27:39 AM 33.6500 -84.6667 90° East 163 188 4,900 -450 Descending Atlanta TRACON
Sat 09:28:39 AM 33.6500 -84.6167 90° East 145 167 4,100 -750 Descending Atlanta TRACON
Sat 09:29:39 AM 33.6500 -84.5667 90° East 136 157 3,400 -800 Descending Atlanta TRACON
Sat 09:30:39 AM 33.6500 -84.5333 90° East 144 166 2,500 -900 Descending Atlanta TRACON

Login

Don't have an account? Register now (free) for customized features, flight alerts, and more!